sensor_id;sensor_type;location;lat;lon;timestamp;pressure;altitude;pressure_sealevel;temperature;humidity
50011;BME280;35899;50.352;19.390;2023-05-16T00:00:56;97191.97;;;10.32;91.52
50011;BME280;35899;50.352;19.390;2023-05-16T00:03:24;97191.33;;;10.29;91.48
50011;BME280;35899;50.352;19.390;2023-05-16T00:05:51;97193.23;;;10.24;91.44
50011;BME280;35899;50.352;19.390;2023-05-16T00:08:17;97197.83;;;10.21;91.92
50011;BME280;35899;50.352;19.390;2023-05-16T00:10:43;97200.37;;;10.20;91.87
50011;BME280;35899;50.352;19.390;2023-05-16T00:13:09;97203.42;;;10.16;91.84
50011;BME280;35899;50.352;19.390;2023-05-16T00:15:36;97200.75;;;10.13;92.00
50011;BME280;35899;50.352;19.390;2023-05-16T00:18:02;97199.45;;;10.11;92.20
50011;BME280;35899;50.352;19.390;2023-05-16T00:20:29;97199.28;;;10.11;92.51
50011;BME280;35899;50.352;19.390;2023-05-16T00:22:55;97200.38;;;10.11;92.56
50011;BME280;35899;50.352;19.390;2023-05-16T00:25:22;97201.49;;;10.10;92.71
50011;BME280;35899;50.352;19.390;2023-05-16T00:27:48;97201.02;;;10.09;92.56
50011;BME280;35899;50.352;19.390;2023-05-16T00:30:14;97198.70;;;10.06;92.75
50011;BME280;35899;50.352;19.390;2023-05-16T00:32:41;97203.73;;;10.03;92.67
50011;BME280;35899;50.352;19.390;2023-05-16T00:35:07;97207.36;;;10.01;93.11
50011;BME280;35899;50.352;19.390;2023-05-16T00:37:33;97208.59;;;9.99;93.05
50011;BME280;35899;50.352;19.390;2023-05-16T00:40:00;97211.86;;;9.99;93.27
50011;BME280;35899;50.352;19.390;2023-05-16T00:42:26;97208.48;;;9.97;93.24
50011;BME280;35899;50.352;19.390;2023-05-16T00:44:52;97207.67;;;9.97;93.29
50011;BME280;35899;50.352;19.390;2023-05-16T00:47:18;97209.14;;;9.96;93.58
50011;BME280;35899;50.352;19.390;2023-05-16T00:49:45;97206.40;;;9.93;93.50
50011;BME280;35899;50.352;19.390;2023-05-16T00:52:11;97211.90;;;9.92;93.87
50011;BME280;35899;50.352;19.390;2023-05-16T00:54:38;97215.34;;;9.90;93.54
50011;BME280;35899;50.352;19.390;2023-05-16T00:57:05;97211.64;;;9.88;93.95
50011;BME280;35899;50.352;19.390;2023-05-16T00:59:32;97215.48;;;9.86;93.78
50011;BME280;35899;50.352;19.390;2023-05-16T01:01:59;97215.80;;;9.84;93.98
50011;BME280;35899;50.352;19.390;2023-05-16T01:04:26;97218.84;;;9.78;93.71
50011;BME280;35899;50.352;19.390;2023-05-16T01:06:53;97216.27;;;9.76;94.21
50011;BME280;35899;50.352;19.390;2023-05-16T01:09:20;97218.13;;;9.74;94.13
50011;BME280;35899;50.352;19.390;2023-05-16T01:14:29;97219.16;;;9.65;93.76
50011;BME280;35899;50.352;19.390;2023-05-16T01:22:10;97215.09;;;9.46;93.44
50011;BME280;35899;50.352;19.390;2023-05-16T01:24:47;97214.63;;;9.41;93.35
50011;BME280;35899;50.352;19.390;2023-05-16T01:27:18;97213.03;;;9.34;93.55
50011;BME280;35899;50.352;19.390;2023-05-16T01:29:44;97213.62;;;9.29;93.40
50011;BME280;35899;50.352;19.390;2023-05-16T01:32:11;97214.80;;;9.23;93.11
50011;BME280;35899;50.352;19.390;2023-05-16T01:34:37;97213.59;;;9.16;93.02
50011;BME280;35899;50.352;19.390;2023-05-16T01:42:03;97209.95;;;9.05;93.38
50011;BME280;35899;50.352;19.390;2023-05-16T01:44:32;97209.31;;;9.02;93.31
50011;BME280;35899;50.352;19.390;2023-05-16T01:47:05;97214.92;;;8.98;93.39
50011;BME280;35899;50.352;19.390;2023-05-16T01:49:35;97222.10;;;8.94;93.68
50011;BME280;35899;50.352;19.390;2023-05-16T01:52:10;97229.15;;;8.92;93.92
50011;BME280;35899;50.352;19.390;2023-05-16T01:54:39;97227.95;;;8.90;93.79
50011;BME280;35899;50.352;19.390;2023-05-16T01:57:07;97226.33;;;8.89;93.82
50011;BME280;35899;50.352;19.390;2023-05-16T01:59:34;97224.02;;;8.87;93.91
50011;BME280;35899;50.352;19.390;2023-05-16T02:02:01;97225.09;;;8.85;93.81
50011;BME280;35899;50.352;19.390;2023-05-16T02:04:27;97223.71;;;8.80;93.67
50011;BME280;35899;50.352;19.390;2023-05-16T02:06:54;97221.44;;;8.75;93.62
50011;BME280;35899;50.352;19.390;2023-05-16T02:09:20;97218.98;;;8.74;93.96
50011;BME280;35899;50.352;19.390;2023-05-16T02:11:46;97219.64;;;8.72;93.86
50011;BME280;35899;50.352;19.390;2023-05-16T02:14:13;97220.53;;;8.69;93.74
50011;BME280;35899;50.352;19.390;2023-05-16T02:16:39;97219.84;;;8.65;93.29
50011;BME280;35899;50.352;19.390;2023-05-16T02:19:05;97218.79;;;8.60;93.37
50011;BME280;35899;50.352;19.390;2023-05-16T02:21:32;97223.27;;;8.55;93.60
50011;BME280;35899;50.352;19.390;2023-05-16T02:23:58;97225.92;;;8.52;93.54
50011;BME280;35899;50.352;19.390;2023-05-16T02:26:25;97223.05;;;8.49;93.31
50011;BME280;35899;50.352;19.390;2023-05-16T02:28:52;97226.75;;;8.45;93.46
50011;BME280;35899;50.352;19.390;2023-05-16T02:34:11;97229.11;;;8.36;93.20
50011;BME280;35899;50.352;19.390;2023-05-16T02:36:37;97234.89;;;8.33;93.31
50011;BME280;35899;50.352;19.390;2023-05-16T02:39:04;97233.98;;;8.31;93.69
50011;BME280;35899;50.352;19.390;2023-05-16T02:41:30;97230.86;;;8.29;93.81
50011;BME280;35899;50.352;19.390;2023-05-16T02:43:56;97234.15;;;8.29;93.74
50011;BME280;35899;50.352;19.390;2023-05-16T02:46:29;97239.48;;;8.27;93.84
50011;BME280;35899;50.352;19.390;2023-05-16T02:48:55;97242.77;;;8.26;94.06
50011;BME280;35899;50.352;19.390;2023-05-16T02:51:23;97248.35;;;8.25;93.86
50011;BME280;35899;50.352;19.390;2023-05-16T02:53:50;97245.70;;;8.26;93.99
50011;BME280;35899;50.352;19.390;2023-05-16T02:56:17;97241.27;;;8.28;93.98
50011;BME280;35899;50.352;19.390;2023-05-16T02:58:45;97237.49;;;8.27;94.05
50011;BME280;35899;50.352;19.390;2023-05-16T03:01:12;97241.57;;;8.28;93.89
50011;BME280;35899;50.352;19.390;2023-05-16T03:03:39;97244.57;;;8.30;94.10
50011;BME280;35899;50.352;19.390;2023-05-16T03:06:05;97245.35;;;8.31;94.06
50011;BME280;35899;50.352;19.390;2023-05-16T03:08:32;97245.39;;;8.33;94.46
50011;BME280;35899;50.352;19.390;2023-05-16T03:10:59;97245.61;;;8.34;94.34
50011;BME280;35899;50.352;19.390;2023-05-16T03:13:25;97242.91;;;8.33;94.22
50011;BME280;35899;50.352;19.390;2023-05-16T03:15:52;97242.46;;;8.33;94.20
50011;BME280;35899;50.352;19.390;2023-05-16T03:18:18;97241.25;;;8.35;94.45
50011;BME280;35899;50.352;19.390;2023-05-16T03:20:44;97245.91;;;8.40;94.34
50011;BME280;35899;50.352;19.390;2023-05-16T03:23:11;97245.67;;;8.44;94.21
50011;BME280;35899;50.352;19.390;2023-05-16T03:25:37;97244.74;;;8.49;94.65
50011;BME280;35899;50.352;19.390;2023-05-16T03:28:04;97243.11;;;8.55;94.70
50011;BME280;35899;50.352;19.390;2023-05-16T03:30:31;97242.78;;;8.62;94.44
50011;BME280;35899;50.352;19.390;2023-05-16T03:32:58;97247.64;;;8.66;94.02
50011;BME280;35899;50.352;19.390;2023-05-16T03:35:24;97250.10;;;8.73;94.17
50011;BME280;35899;50.352;19.390;2023-05-16T03:37:51;97247.66;;;8.80;94.17
50011;BME280;35899;50.352;19.390;2023-05-16T03:40:17;97251.25;;;8.85;94.00
50011;BME280;35899;50.352;19.390;2023-05-16T03:42:44;97253.20;;;8.89;93.70
50011;BME280;35899;50.352;19.390;2023-05-16T03:45:10;97259.09;;;8.94;93.78
50011;BME280;35899;50.352;19.390;2023-05-16T03:47:37;97259.58;;;8.94;93.52
50011;BME280;35899;50.352;19.390;2023-05-16T03:50:04;97261.75;;;8.97;93.32
50011;BME280;35899;50.352;19.390;2023-05-16T03:52:30;97264.27;;;9.03;93.42
50011;BME280;35899;50.352;19.390;2023-05-16T03:54:57;97270.75;;;9.11;93.66
50011;BME280;35899;50.352;19.390;2023-05-16T03:57:23;97267.76;;;9.19;93.37
50011;BME280;35899;50.352;19.390;2023-05-16T03:59:49;97270.20;;;9.23;93.15
50011;BME280;35899;50.352;19.390;2023-05-16T04:02:16;97266.75;;;9.28;92.74
50011;BME280;35899;50.352;19.390;2023-05-16T04:04:44;97264.36;;;9.34;93.07
50011;BME280;35899;50.352;19.390;2023-05-16T04:07:11;97266.51;;;9.40;93.12
50011;BME280;35899;50.352;19.390;2023-05-16T04:09:37;97270.14;;;9.51;93.46
50011;BME280;35899;50.352;19.390;2023-05-16T04:12:03;97271.43;;;9.64;93.64
50011;BME280;35899;50.352;19.390;2023-05-16T04:14:30;97266.55;;;9.73;93.21
50011;BME280;35899;50.352;19.390;2023-05-16T04:16:56;97264.70;;;9.77;92.34
50011;BME280;35899;50.352;19.390;2023-05-16T04:19:22;97269.02;;;9.79;91.94
50011;BME280;35899;50.352;19.390;2023-05-16T04:21:49;97273.34;;;9.84;91.90
50011;BME280;35899;50.352;19.390;2023-05-16T04:24:15;97272.14;;;9.88;91.56
50011;BME280;35899;50.352;19.390;2023-05-16T04:26:42;97273.88;;;9.97;91.98
50011;BME280;35899;50.352;19.390;2023-05-16T04:29:08;97279.19;;;10.11;92.22
50011;BME280;35899;50.352;19.390;2023-05-16T04:31:34;97278.58;;;10.25;92.46
50011;BME280;35899;50.352;19.390;2023-05-16T04:34:01;97278.31;;;10.42;93.04
50011;BME280;35899;50.352;19.390;2023-05-16T04:36:27;97277.79;;;10.60;93.42
50011;BME280;35899;50.352;19.390;2023-05-16T04:38:54;97285.25;;;10.76;93.60
50011;BME280;35899;50.352;19.390;2023-05-16T04:41:20;97290.91;;;10.92;93.55
50011;BME280;35899;50.352;19.390;2023-05-16T04:43:47;97293.73;;;11.08;93.63
50011;BME280;35899;50.352;19.390;2023-05-16T04:46:13;97295.48;;;11.23;93.66
50011;BME280;35899;50.352;19.390;2023-05-16T04:48:39;97299.94;;;11.38;93.63
50011;BME280;35899;50.352;19.390;2023-05-16T04:51:06;97303.52;;;11.53;93.70
50011;BME280;35899;50.352;19.390;2023-05-16T04:53:32;97305.98;;;11.71;93.70
50011;BME280;35899;50.352;19.390;2023-05-16T04:55:59;97306.81;;;11.88;93.35
50011;BME280;35899;50.352;19.390;2023-05-16T04:58:25;97305.44;;;12.03;92.75
50011;BME280;35899;50.352;19.390;2023-05-16T05:00:51;97306.63;;;12.17;92.56
50011;BME280;35899;50.352;19.390;2023-05-16T05:03:18;97315.35;;;12.33;92.36
50011;BME280;35899;50.352;19.390;2023-05-16T05:05:44;97318.52;;;12.44;91.48
50011;BME280;35899;50.352;19.390;2023-05-16T05:08:10;97325.12;;;12.56;91.25
50011;BME280;35899;50.352;19.390;2023-05-16T05:10:37;97327.46;;;12.67;90.63
50011;BME280;35899;50.352;19.390;2023-05-16T05:13:03;97321.52;;;12.75;90.24
50011;BME280;35899;50.352;19.390;2023-05-16T05:15:29;97324.40;;;12.82;89.70
50011;BME280;35899;50.352;19.390;2023-05-16T05:17:56;97324.52;;;12.90;89.73
50011;BME280;35899;50.352;19.390;2023-05-16T05:20:22;97327.94;;;12.99;89.20
50011;BME280;35899;50.352;19.390;2023-05-16T05:22:49;97326.84;;;13.07;89.08
50011;BME280;35899;50.352;19.390;2023-05-16T05:25:15;97329.02;;;13.18;89.00
50011;BME280;35899;50.352;19.390;2023-05-16T05:27:41;97327.02;;;13.26;88.39
50011;BME280;35899;50.352;19.390;2023-05-16T05:30:08;97327.39;;;13.32;87.79
50011;BME280;35899;50.352;19.390;2023-05-16T05:32:34;97329.64;;;13.40;87.72
50011;BME280;35899;50.352;19.390;2023-05-16T05:35:01;97328.52;;;13.48;87.25
50011;BME280;35899;50.352;19.390;2023-05-16T05:37:27;97328.63;;;13.58;87.09
50011;BME280;35899;50.352;19.390;2023-05-16T05:39:54;97326.98;;;13.69;86.88
50011;BME280;35899;50.352;19.390;2023-05-16T05:42:20;97323.87;;;13.80;86.77
50011;BME280;35899;50.352;19.390;2023-05-16T05:44:47;97315.73;;;13.93;86.64
50011;BME280;35899;50.352;19.390;2023-05-16T05:47:13;97318.19;;;14.07;86.33
50011;BME280;35899;50.352;19.390;2023-05-16T05:49:40;97318.48;;;14.21;85.76
50011;BME280;35899;50.352;19.390;2023-05-16T05:52:06;97317.63;;;14.32;85.37
50011;BME280;35899;50.352;19.390;2023-05-16T05:54:33;97326.08;;;14.43;85.28
50011;BME280;35899;50.352;19.390;2023-05-16T05:56:59;97325.14;;;14.56;84.35
50011;BME280;35899;50.352;19.390;2023-05-16T05:59:25;97329.09;;;14.63;84.07
50011;BME280;35899;50.352;19.390;2023-05-16T06:01:52;97331.27;;;14.68;83.44
50011;BME280;35899;50.352;19.390;2023-05-16T06:04:19;97331.16;;;14.75;83.16
50011;BME280;35899;50.352;19.390;2023-05-16T06:06:45;97334.82;;;14.85;83.05
50011;BME280;35899;50.352;19.390;2023-05-16T06:09:11;97335.08;;;14.97;82.58
50011;BME280;35899;50.352;19.390;2023-05-16T06:11:38;97338.29;;;15.07;82.33
50011;BME280;35899;50.352;19.390;2023-05-16T06:14:04;97331.66;;;15.18;82.14
50011;BME280;35899;50.352;19.390;2023-05-16T06:16:31;97331.73;;;15.20;80.53
50011;BME280;35899;50.352;19.390;2023-05-16T06:18:57;97335.50;;;15.23;80.45
50011;BME280;35899;50.352;19.390;2023-05-16T06:21:23;97331.75;;;15.24;79.93
50011;BME280;35899;50.352;19.390;2023-05-16T06:23:50;97333.73;;;15.25;79.36
50011;BME280;35899;50.352;19.390;2023-05-16T06:26:16;97334.49;;;15.28;79.16
50011;BME280;35899;50.352;19.390;2023-05-16T06:28:42;97337.52;;;15.31;78.97
50011;BME280;35899;50.352;19.390;2023-05-16T06:31:09;97336.45;;;15.36;78.92
50011;BME280;35899;50.352;19.390;2023-05-16T06:33:35;97333.77;;;15.37;78.06
50011;BME280;35899;50.352;19.390;2023-05-16T06:36:01;97339.98;;;15.33;77.73
50011;BME280;35899;50.352;19.390;2023-05-16T06:38:28;97342.92;;;15.36;77.71
50011;BME280;35899;50.352;19.390;2023-05-16T06:40:54;97342.70;;;15.44;77.55
50011;BME280;35899;50.352;19.390;2023-05-16T06:43:20;97338.59;;;15.50;77.34
50011;BME280;35899;50.352;19.390;2023-05-16T06:45:47;97334.34;;;15.52;77.16
50011;BME280;35899;50.352;19.390;2023-05-16T06:48:13;97333.51;;;15.59;77.05
50011;BME280;35899;50.352;19.390;2023-05-16T06:50:40;97332.70;;;15.65;77.00
50011;BME280;35899;50.352;19.390;2023-05-16T06:53:06;97331.44;;;15.71;76.74
50011;BME280;35899;50.352;19.390;2023-05-16T06:55:33;97337.95;;;15.74;75.92
50011;BME280;35899;50.352;19.390;2023-05-16T06:57:59;97342.98;;;15.78;75.74
50011;BME280;35899;50.352;19.390;2023-05-16T07:00:26;97342.29;;;15.83;75.66
50011;BME280;35899;50.352;19.390;2023-05-16T07:02:52;97341.23;;;15.90;75.63
50011;BME280;35899;50.352;19.390;2023-05-16T07:05:18;97341.58;;;15.98;75.80
50011;BME280;35899;50.352;19.390;2023-05-16T07:07:45;97344.76;;;16.07;75.28
50011;BME280;35899;50.352;19.390;2023-05-16T07:10:11;97342.41;;;16.13;75.06
50011;BME280;35899;50.352;19.390;2023-05-16T07:12:40;97345.30;;;16.24;74.75
50011;BME280;35899;50.352;19.390;2023-05-16T07:15:06;97348.70;;;16.33;74.24
50011;BME280;35899;50.352;19.390;2023-05-16T07:17:33;97346.26;;;16.45;73.74
50011;BME280;35899;50.352;19.390;2023-05-16T07:20:00;97346.58;;;16.54;72.74
50011;BME280;35899;50.352;19.390;2023-05-16T07:22:30;97347.77;;;16.61;72.40
50011;BME280;35899;50.352;19.390;2023-05-16T07:24:57;97348.77;;;16.75;72.95
50011;BME280;35899;50.352;19.390;2023-05-16T07:27:24;97355.84;;;16.93;72.66
50011;BME280;35899;50.352;19.390;2023-05-16T07:29:51;97360.91;;;17.06;71.75
50011;BME280;35899;50.352;19.390;2023-05-16T07:32:17;97363.73;;;17.22;71.79
50011;BME280;35899;50.352;19.390;2023-05-16T07:34:43;97363.79;;;17.43;71.70
50011;BME280;35899;50.352;19.390;2023-05-16T07:37:10;97363.29;;;17.59;70.77
50011;BME280;35899;50.352;19.390;2023-05-16T07:39:36;97364.35;;;17.69;70.15
50011;BME280;35899;50.352;19.390;2023-05-16T07:42:03;97371.73;;;17.85;69.97
50011;BME280;35899;50.352;19.390;2023-05-16T07:44:29;97370.31;;;18.03;69.53
50011;BME280;35899;50.352;19.390;2023-05-16T07:46:55;97376.95;;;18.14;68.39
50011;BME280;35899;50.352;19.390;2023-05-16T07:49:22;97379.84;;;18.26;68.61
50011;BME280;35899;50.352;19.390;2023-05-16T07:51:48;97383.75;;;18.42;68.43
50011;BME280;35899;50.352;19.390;2023-05-16T07:54:14;97387.66;;;18.57;68.23
50011;BME280;35899;50.352;19.390;2023-05-16T07:56:41;97389.58;;;18.68;67.67
50011;BME280;35899;50.352;19.390;2023-05-16T07:59:07;97386.09;;;18.76;67.29
50011;BME280;35899;50.352;19.390;2023-05-16T08:01:34;97400.34;;;18.80;66.71
50011;BME280;35899;50.352;19.390;2023-05-16T08:04:00;97407.39;;;18.86;66.47
50011;BME280;35899;50.352;19.390;2023-05-16T08:06:27;97420.41;;;18.98;66.22
50011;BME280;35899;50.352;19.390;2023-05-16T08:08:53;97422.52;;;19.01;65.74
50011;BME280;35899;50.352;19.390;2023-05-16T08:11:19;97425.36;;;19.04;65.41
50011;BME280;35899;50.352;19.390;2023-05-16T08:13:46;97428.15;;;19.01;64.87
50011;BME280;35899;50.352;19.390;2023-05-16T08:16:12;97422.84;;;18.98;64.36
50011;BME280;35899;50.352;19.390;2023-05-16T08:18:39;97422.13;;;18.89;63.50
50011;BME280;35899;50.352;19.390;2023-05-16T08:21:05;97416.59;;;18.87;64.21
50011;BME280;35899;50.352;19.390;2023-05-16T08:23:31;97414.40;;;18.91;64.70
50011;BME280;35899;50.352;19.390;2023-05-16T08:25:58;97419.92;;;19.02;64.49
50011;BME280;35899;50.352;19.390;2023-05-16T08:28:24;97425.23;;;18.99;63.69
50011;BME280;35899;50.352;19.390;2023-05-16T08:30:51;97422.17;;;19.04;63.82
50011;BME280;35899;50.352;19.390;2023-05-16T08:33:17;97420.63;;;19.28;63.85
50011;BME280;35899;50.352;19.390;2023-05-16T08:35:43;97414.52;;;19.59;63.67
50011;BME280;35899;50.352;19.390;2023-05-16T08:38:10;97409.27;;;19.80;63.76
50011;BME280;35899;50.352;19.390;2023-05-16T08:40:36;97410.05;;;19.90;63.13
50011;BME280;35899;50.352;19.390;2023-05-16T08:43:02;97415.24;;;19.87;63.29
50011;BME280;35899;50.352;19.390;2023-05-16T08:45:29;97416.64;;;19.88;62.63
50011;BME280;35899;50.352;19.390;2023-05-16T08:51:50;97421.23;;;19.98;62.80
50011;BME280;35899;50.352;19.390;2023-05-16T08:54:24;97415.88;;;20.08;62.79
50011;BME280;35899;50.352;19.390;2023-05-16T08:56:58;97419.98;;;20.31;62.39
50011;BME280;35899;50.352;19.390;2023-05-16T08:59:39;97420.11;;;20.58;60.74
50011;BME280;35899;50.352;19.390;2023-05-16T09:02:12;97416.84;;;20.86;59.16
50011;BME280;35899;50.352;19.390;2023-05-16T09:05:13;97409.72;;;21.27;58.22
50011;BME280;35899;50.352;19.390;2023-05-16T09:08:05;97412.38;;;21.63;57.79
50011;BME280;35899;50.352;19.390;2023-05-16T09:10:46;97407.96;;;21.90;57.39
50011;BME280;35899;50.352;19.390;2023-05-16T09:13:12;97412.48;;;21.98;56.48
50011;BME280;35899;50.352;19.390;2023-05-16T09:15:39;97412.02;;;21.94;56.12
50011;BME280;35899;50.352;19.390;2023-05-16T09:18:10;97415.88;;;22.07;56.57
50011;BME280;35899;50.352;19.390;2023-05-16T09:20:37;97418.16;;;22.24;56.88
50011;BME280;35899;50.352;19.390;2023-05-16T09:23:10;97422.99;;;22.25;56.29
50011;BME280;35899;50.352;19.390;2023-05-16T09:25:36;97421.31;;;22.33;55.67
50011;BME280;35899;50.352;19.390;2023-05-16T09:28:05;97419.51;;;22.53;55.90
50011;BME280;35899;50.352;19.390;2023-05-16T09:30:35;97417.86;;;22.58;54.71
50011;BME280;35899;50.352;19.390;2023-05-16T09:33:02;97416.09;;;22.54;54.01
50011;BME280;35899;50.352;19.390;2023-05-16T09:35:31;97419.31;;;22.54;54.88
50011;BME280;35899;50.352;19.390;2023-05-16T09:38:00;97419.95;;;22.69;55.81
50011;BME280;35899;50.352;19.390;2023-05-16T09:40:27;97417.60;;;22.83;55.37
50011;BME280;35899;50.352;19.390;2023-05-16T09:43:03;97411.64;;;22.95;55.87
50011;BME280;35899;50.352;19.390;2023-05-16T09:45:30;97418.09;;;23.06;55.05
50011;BME280;35899;50.352;19.390;2023-05-16T09:48:00;97420.17;;;23.05;53.26
50011;BME280;35899;50.352;19.390;2023-05-16T09:50:27;97414.60;;;22.96;52.86
50011;BME280;35899;50.352;19.390;2023-05-16T09:52:54;97413.32;;;23.17;54.01
50011;BME280;35899;50.352;19.390;2023-05-16T09:55:22;97419.66;;;23.54;54.11
50011;BME280;35899;50.352;19.390;2023-05-16T09:57:48;97423.77;;;23.82;53.09
50011;BME280;35899;50.352;19.390;2023-05-16T10:00:15;97422.04;;;24.03;51.74
50011;BME280;35899;50.352;19.390;2023-05-16T10:02:41;97420.38;;;24.40;51.22
50011;BME280;35899;50.352;19.390;2023-05-16T10:05:08;97419.58;;;24.76;50.70
50011;BME280;35899;50.352;19.390;2023-05-16T10:07:35;97425.34;;;24.86;49.92
50011;BME280;35899;50.352;19.390;2023-05-16T10:10:04;97421.30;;;25.03;49.29
50011;BME280;35899;50.352;19.390;2023-05-16T10:12:31;97421.37;;;25.06;48.09
50011;BME280;35899;50.352;19.390;2023-05-16T10:15:01;97416.25;;;24.94;47.45
50011;BME280;35899;50.352;19.390;2023-05-16T10:17:29;97410.38;;;25.15;47.22
50011;BME280;35899;50.352;19.390;2023-05-16T10:19:56;97407.97;;;25.64;45.74
50011;BME280;35899;50.352;19.390;2023-05-16T10:22:23;97415.14;;;26.03;45.38
50011;BME280;35899;50.352;19.390;2023-05-16T10:24:55;97411.26;;;26.43;44.91
50011;BME280;35899;50.352;19.390;2023-05-16T10:27:23;97415.42;;;26.51;42.45
50011;BME280;35899;50.352;19.390;2023-05-16T10:29:50;97413.84;;;26.40;42.54
50011;BME280;35899;50.352;19.390;2023-05-16T10:32:22;97410.33;;;26.42;43.01
50011;BME280;35899;50.352;19.390;2023-05-16T10:34:49;97412.98;;;26.41;43.39
50011;BME280;35899;50.352;19.390;2023-05-16T10:37:15;97409.88;;;26.43;43.87
50011;BME280;35899;50.352;19.390;2023-05-16T10:39:42;97403.53;;;26.35;43.78
50011;BME280;35899;50.352;19.390;2023-05-16T10:42:08;97405.13;;;26.19;44.05
50011;BME280;35899;50.352;19.390;2023-05-16T10:44:35;97399.42;;;25.99;43.88
50011;BME280;35899;50.352;19.390;2023-05-16T10:47:04;97398.17;;;25.77;43.15
50011;BME280;35899;50.352;19.390;2023-05-16T10:49:30;97396.80;;;25.65;44.03
50011;BME280;35899;50.352;19.390;2023-05-16T10:52:07;97402.48;;;25.77;44.47
50011;BME280;35899;50.352;19.390;2023-05-16T10:54:41;97404.28;;;25.90;44.84
50011;BME280;35899;50.352;19.390;2023-05-16T11:05:27;97405.63;;;26.61;43.14
50011;BME280;35899;50.352;19.390;2023-05-16T11:08:16;97403.93;;;26.80;42.73
50011;BME280;35899;50.352;19.390;2023-05-16T11:10:48;97396.22;;;26.87;41.54
50011;BME280;35899;50.352;19.390;2023-05-16T11:13:52;97398.99;;;27.03;41.80
50011;BME280;35899;50.352;19.390;2023-05-16T11:16:38;97397.70;;;27.27;41.87
50011;BME280;35899;50.352;19.390;2023-05-16T11:19:11;97397.82;;;27.39;41.56
50011;BME280;35899;50.352;19.390;2023-05-16T11:24:35;97390.27;;;27.82;41.23
50011;BME280;35899;50.352;19.390;2023-05-16T11:27:12;97387.03;;;28.16;41.11
50011;BME280;35899;50.352;19.390;2023-05-16T11:29:39;97390.40;;;28.39;40.97
50011;BME280;35899;50.352;19.390;2023-05-16T11:32:05;97393.54;;;28.45;40.29
50011;BME280;35899;50.352;19.390;2023-05-16T11:34:34;97392.27;;;28.39;40.09
50011;BME280;35899;50.352;19.390;2023-05-16T11:40:46;97375.11;;;28.15;38.53
50011;BME280;35899;50.352;19.390;2023-05-16T11:43:57;97370.29;;;27.99;38.83
50011;BME280;35899;50.352;19.390;2023-05-16T11:46:43;97375.38;;;27.98;39.15
50011;BME280;35899;50.352;19.390;2023-05-16T11:49:16;97373.81;;;27.92;38.88
50011;BME280;35899;50.352;19.390;2023-05-16T11:51:42;97379.94;;;27.70;38.44
50011;BME280;35899;50.352;19.390;2023-05-16T11:54:09;97382.98;;;27.63;38.03
50011;BME280;35899;50.352;19.390;2023-05-16T11:56:35;97382.45;;;27.63;38.37
50011;BME280;35899;50.352;19.390;2023-05-16T11:59:02;97383.73;;;27.72;38.54
50011;BME280;35899;50.352;19.390;2023-05-16T12:01:35;97385.69;;;27.89;38.66
50011;BME280;35899;50.352;19.390;2023-05-16T12:06:34;97384.14;;;28.10;37.88
50011;BME280;35899;50.352;19.390;2023-05-16T12:09:01;97386.92;;;28.13;37.69
50011;BME280;35899;50.352;19.390;2023-05-16T12:11:27;97386.96;;;28.18;37.53
50011;BME280;35899;50.352;19.390;2023-05-16T12:13:53;97382.95;;;28.08;36.91
50011;BME280;35899;50.352;19.390;2023-05-16T12:16:20;97381.46;;;27.89;37.15
50011;BME280;35899;50.352;19.390;2023-05-16T12:18:47;97387.11;;;27.64;37.67
50011;BME280;35899;50.352;19.390;2023-05-16T12:21:13;97384.95;;;27.26;37.28
50011;BME280;35899;50.352;19.390;2023-05-16T12:23:40;97386.54;;;26.91;37.80
50011;BME280;35899;50.352;19.390;2023-05-16T12:26:07;97388.95;;;26.61;37.91
50011;BME280;35899;50.352;19.390;2023-05-16T12:28:33;97391.46;;;26.26;37.58
50011;BME280;35899;50.352;19.390;2023-05-16T12:30:59;97388.90;;;25.86;38.26
50011;BME280;35899;50.352;19.390;2023-05-16T12:33:26;97384.70;;;25.54;38.91
50011;BME280;35899;50.352;19.390;2023-05-16T12:35:53;97383.99;;;25.20;38.94
50011;BME280;35899;50.352;19.390;2023-05-16T12:38:19;97382.27;;;24.95;39.50
50011;BME280;35899;50.352;19.390;2023-05-16T12:40:46;97387.19;;;24.89;40.34
50011;BME280;35899;50.352;19.390;2023-05-16T12:45:39;97384.63;;;24.68;40.18
50011;BME280;35899;50.352;19.390;2023-05-16T12:48:10;97381.31;;;24.43;40.49
50011;BME280;35899;50.352;19.390;2023-05-16T12:50:37;97377.80;;;24.31;41.24
50011;BME280;35899;50.352;19.390;2023-05-16T12:53:04;97375.52;;;24.19;41.62
50011;BME280;35899;50.352;19.390;2023-05-16T12:55:30;97376.83;;;24.10;41.56
50011;BME280;35899;50.352;19.390;2023-05-16T12:57:56;97376.14;;;24.09;41.57
50011;BME280;35899;50.352;19.390;2023-05-16T13:00:23;97372.81;;;24.18;42.03
50011;BME280;35899;50.352;19.390;2023-05-16T13:02:49;97371.80;;;24.34;41.83
50011;BME280;35899;50.352;19.390;2023-05-16T13:05:16;97371.05;;;24.37;41.91
50011;BME280;35899;50.352;19.390;2023-05-16T13:07:42;97367.05;;;24.23;41.60
50011;BME280;35899;50.352;19.390;2023-05-16T13:10:09;97364.06;;;24.11;41.83
50011;BME280;35899;50.352;19.390;2023-05-16T13:12:36;97363.13;;;24.11;41.88
50011;BME280;35899;50.352;19.390;2023-05-16T13:15:03;97364.60;;;24.24;42.21
50011;BME280;35899;50.352;19.390;2023-05-16T13:17:30;97370.95;;;24.47;42.20
50011;BME280;35899;50.352;19.390;2023-05-16T13:19:56;97368.45;;;24.71;41.89
50011;BME280;35899;50.352;19.390;2023-05-16T13:22:22;97369.78;;;24.66;41.63
50011;BME280;35899;50.352;19.390;2023-05-16T13:24:49;97366.51;;;24.45;41.72
50011;BME280;35899;50.352;19.390;2023-05-16T13:27:15;97370.80;;;24.24;42.18
50011;BME280;35899;50.352;19.390;2023-05-16T13:29:42;97372.24;;;23.98;42.19
50011;BME280;35899;50.352;19.390;2023-05-16T13:32:09;97364.98;;;23.73;42.53
50011;BME280;35899;50.352;19.390;2023-05-16T13:34:35;97368.26;;;23.46;42.86